Time;durP1;ratioP1;P1;durP2;ratioP2;P2;SDS_P1;SDS_P2;PMS_P1;PMS_P2;Temp;Humidity;BMP_temperature;BMP_pressure;BME280_temperature;BME280_humidity;BME280_pressure;Samples;Min_cycle;Max_cycle;Signal;HPM_P1;HPM_P2
2022/08/12 00:44:13;;;;;;;1.05;0.45;;;23.60;57.10;;;;;;5050879;28;20514;-66
2022/08/12 00:46:53;;;;;;;1.05;0.60;;;23.60;57.00;;;;;;5052308;28;20063;-66
2022/08/12 00:49:22;;;;;;;1.10;0.70;;;23.60;57.00;;;;;;5051003;28;20037;-66
2022/08/12 00:52:05;;;;;;;0.65;0.40;;;23.60;57.00;;;;;;5051052;28;20037;-66
2022/08/12 00:54:33;;;;;;;0.80;0.63;;;23.60;57.10;;;;;;5051169;28;20076;-66
2022/08/12 00:57:03;;;;;;;0.70;0.40;;;23.60;57.10;;;;;;5050907;28;20119;-66
2022/08/12 00:59:30;;;;;;;;;;;23.60;57.10;;;;;;5052582;28;20419;-66
2022/08/12 01:01:58;;;;;;;1.60;0.50;;;23.60;57.10;;;;;;5050841;28;19956;-66
2022/08/12 01:12:48;;;;;;;0.70;0.45;;;23.60;57.10;;;;;;5051891;28;20052;-66
2022/08/12 01:15:14;;;;;;;0.98;0.57;;;23.60;57.10;;;;;;5051950;28;20052;-66
2022/08/12 01:17:43;;;;;;;2.45;0.50;;;23.60;57.10;;;;;;5052027;28;20384;-66
2022/08/12 01:20:17;;;;;;;0.60;0.40;;;23.60;57.10;;;;;;5050790;28;20480;-66
2022/08/12 01:22:56;;;;;;;0.90;0.47;;;23.60;57.10;;;;;;5050662;28;20556;-66
2022/08/12 01:25:27;;;;;;;1.05;0.40;;;23.60;57.10;;;;;;5050821;28;20041;-66
2022/08/12 01:27:56;;;;;;;1.60;0.43;;;23.50;57.10;;;;;;5050435;28;20045;-66
2022/08/12 01:30:25;;;;;;;0.52;0.38;;;23.60;57.10;;;;;;5050463;28;20116;-66
2022/08/12 01:32:54;;;;;;;0.63;0.45;;;23.50;57.10;;;;;;5050450;28;20083;-66
2022/08/12 01:35:22;;;;;;;1.38;0.50;;;23.50;57.10;;;;;;5051942;28;20083;-66
2022/08/12 01:40:38;;;;;;;1.10;0.68;;;23.50;57.10;;;;;;5130328;27;20335;-65
2022/08/12 01:43:08;;;;;;;0.80;0.50;;;23.50;57.10;;;;;;5130348;27;20044;-66
2022/08/12 01:45:42;;;;;;;1.20;0.80;;;23.50;57.10;;;;;;5129179;28;20047;-66
2022/08/12 01:48:23;;;;;;;1.05;0.60;;;23.50;57.10;;;;;;5129236;28;20118;-66
2022/08/12 01:51:03;;;;;;;1.17;0.70;;;23.50;57.90;;;;;;5128871;28;20067;-65
2022/08/12 01:53:34;;;;;;;;;;;23.50;57.20;;;;;;5129546;28;20043;-66
2022/08/12 01:55:59;;;;;;;;;;;23.50;57.20;;;;;;5129427;28;19985;-66
2022/08/12 02:01:10;;;;;;;0.90;0.60;;;23.40;57.20;;;;;;5130375;27;1158287;-65
2022/08/12 02:13:08;;;;;;;0.65;0.40;;;23.50;57.20;;;;;;5128767;27;20043;-65
2022/08/12 02:18:27;;;;;;;1.95;0.60;;;23.40;57.20;;;;;;5109855;27;20757;-66
2022/08/12 02:21:04;;;;;;;0.70;0.40;;;23.40;57.20;;;;;;5091444;28;20410;-65
2022/08/12 02:23:30;;;;;;;0.98;0.68;;;23.40;57.20;;;;;;5091411;28;20093;-65
2022/08/12 02:26:02;;;;;;;0.85;0.52;;;23.50;57.20;;;;;;5091360;28;20040;-65
2022/08/12 02:28:29;;;;;;;0.70;0.30;;;23.40;57.20;;;;;;5109776;28;20388;-65
2022/08/12 02:31:00;;;;;;;0.77;0.50;;;23.40;57.20;;;;;;5091576;28;20579;-65
2022/08/12 02:33:26;;;;;;;0.90;0.40;;;23.40;57.20;;;;;;5109504;28;20042;-65
2022/08/12 02:35:53;;;;;;;0.63;0.50;;;23.40;57.20;;;;;;5091416;28;20494;-65
2022/08/12 02:38:20;;;;;;;0.73;0.40;;;23.40;57.20;;;;;;5091239;28;20044;-65
2022/08/12 02:40:50;;;;;;;0.70;0.40;;;23.40;57.20;;;;;;5091161;28;20039;-65
2022/08/12 02:46:19;;;;;;;1.00;0.40;;;23.40;57.20;;;;;;5130347;27;20414;-65
2022/08/12 02:51:32;;;;;;;0.80;0.47;;;23.40;57.20;;;;;;5130388;27;20403;-65
2022/08/12 02:54:02;;;;;;;0.80;0.43;;;23.40;57.30;;;;;;5128998;28;20044;-65
2022/08/12 02:56:29;;;;;;;1.45;0.47;;;23.40;57.20;;;;;;5128987;28;20054;-65
2022/08/12 02:58:57;;;;;;;1.75;0.40;;;23.30;57.10;;;;;;5128834;28;20065;-65
2022/08/12 03:01:32;;;;;;;1.63;0.57;;;23.30;57.20;;;;;;5129196;28;20043;-65
2022/08/12 03:04:01;;;;;;;1.67;0.50;;;23.30;57.20;;;;;;5128805;28;20077;-65
2022/08/12 03:06:37;;;;;;;0.95;0.50;;;23.30;57.20;;;;;;5128820;28;20035;-65
2022/08/12 03:09:05;;;;;;;1.02;0.60;;;23.30;57.10;;;;;;5128857;28;20035;-65
2022/08/12 03:11:40;;;;;;;0.65;0.32;;;23.30;57.20;;;;;;5130001;27;20107;-65
2022/08/12 03:14:12;;;;;;;0.82;0.50;;;23.30;57.20;;;;;;5128644;28;20482;-65
2022/08/12 03:16:38;;;;;;;1.50;0.50;;;23.30;57.20;;;;;;5129914;27;20035;-66
2022/08/12 03:19:05;;;;;;;0.73;0.50;;;23.30;57.20;;;;;;5128768;28;20145;-65
2022/08/12 03:21:36;;;;;;;0.80;0.43;;;23.20;57.10;;;;;;5128525;27;20091;-65
2022/08/12 03:24:04;;;;;;;0.88;0.40;;;23.20;57.10;;;;;;5129681;27;20047;-65
2022/08/12 03:26:34;;;;;;;0.77;0.50;;;23.20;57.20;;;;;;5128673;28;20035;-66
2022/08/12 03:29:05;;;;;;;0.70;0.40;;;23.20;57.10;;;;;;5129508;27;20039;-65
2022/08/12 03:31:32;;;;;;;1.75;0.60;;;23.20;57.20;;;;;;5111527;28;20043;-65
2022/08/12 03:36:41;;;;;;;1.52;1.17;;;23.20;57.20;;;;;;5130317;27;20357;-65
2022/08/12 03:42:06;;;;;;;0.75;0.52;;;23.20;57.20;;;;;;5130431;27;20365;-65
2022/08/12 04:01:25;;;;;;;0.90;0.43;;;23.10;57.20;;;;;;5130052;28;20087;-65
2022/08/12 04:03:51;;;;;;;0.60;0.40;;;23.20;57.20;;;;;;5129082;28;20078;-65
2022/08/12 04:06:21;;;;;;;0.90;0.52;;;23.10;57.10;;;;;;5128684;27;20528;-65
2022/08/12 04:08:51;;;;;;;0.80;0.52;;;23.10;57.20;;;;;;5128821;28;20096;-65
2022/08/12 04:14:05;;;;;;;1.13;0.55;;;23.10;57.10;;;;;;5128460;28;20515;-65
2022/08/12 04:16:32;;;;;;;0.80;0.43;;;23.10;57.20;;;;;;5128751;28;20047;-65
2022/08/12 04:18:58;;;;;;;0.90;0.55;;;23.10;57.90;;;;;;5128790;27;20421;-65
2022/08/12 04:21:23;;;;;;;0.77;0.40;;;23.10;57.20;;;;;;5129762;27;20040;-65
2022/08/12 04:23:50;;;;;;;1.17;0.47;;;23.10;57.20;;;;;;5128701;27;20495;-65
2022/08/12 04:26:16;;;;;;;0.55;0.30;;;23.10;57.10;;;;;;5128360;28;20043;-65
2022/08/12 04:28:43;;;;;;;0.70;0.50;;;23.10;57.10;;;;;;5128538;28;20044;-65
2022/08/12 04:31:09;;;;;;;0.75;0.40;;;23.10;57.10;;;;;;5128559;28;20044;-65
2022/08/12 04:33:35;;;;;;;0.75;0.40;;;23.10;57.20;;;;;;5129517;27;20039;-65
2022/08/12 04:36:01;;;;;;;1.17;0.60;;;23.10;57.20;;;;;;5129708;27;20040;-65
2022/08/12 04:38:29;;;;;;;0.65;0.30;;;23.10;57.10;;;;;;5128451;28;20046;-65
2022/08/12 04:40:55;;;;;;;1.45;0.40;;;23.10;57.20;;;;;;5129398;27;20039;-66
2022/08/12 04:43:21;;;;;;;0.70;0.40;;;23.00;57.00;;;;;;5128088;28;20043;-65
2022/08/12 04:45:48;;;;;;;0.60;0.50;;;23.00;57.00;;;;;;5129194;27;20496;-65
2022/08/12 04:48:14;;;;;;;1.90;0.43;;;23.00;57.00;;;;;;5127851;28;20456;-65
2022/08/12 04:50:40;;;;;;;0.57;0.38;;;23.00;57.10;;;;;;5145322;27;20044;-65
2022/08/12 04:53:07;;;;;;;0.70;0.50;;;23.00;57.00;;;;;;5127894;28;20040;-65
2022/08/12 04:55:33;;;;;;;0.70;0.38;;;23.00;57.10;;;;;;5129237;27;20039;-65
2022/08/12 04:57:59;;;;;;;1.05;0.50;;;23.00;57.10;;;;;;5127968;28;20114;-66
2022/08/12 05:00:26;;;;;;;0.82;0.40;;;23.00;57.10;;;;;;5121222;28;20438;-65
2022/08/12 05:02:52;;;;;;;0.60;0.40;;;23.00;57.00;;;;;;5114189;28;20467;-66
2022/08/12 05:05:21;;;;;;;1.35;0.50;;;23.00;57.10;;;;;;5115435;28;20040;-65
2022/08/12 05:07:48;;;;;;;0.85;0.57;;;23.00;57.10;;;;;;5113866;28;20043;-65
2022/08/12 05:10:14;;;;;;;1.02;0.40;;;23.00;57.10;;;;;;5115236;28;20085;-65
2022/08/12 05:12:43;;;;;;;1.35;0.40;;;23.00;57.10;;;;;;5113820;28;20549;-65
2022/08/12 05:15:09;;;;;;;0.80;0.38;;;23.00;57.10;;;;;;5113825;28;20039;-66
2022/08/12 05:17:35;;;;;;;1.25;0.63;;;23.00;57.10;;;;;;5113849;28;20108;-65
2022/08/12 05:20:00;;;;;;;0.70;0.50;;;22.90;57.00;;;;;;5113949;28;20044;-65
2022/08/12 05:22:26;;;;;;;0.75;0.47;;;22.90;57.10;;;;;;5113838;28;20387;-65
2022/08/12 05:24:52;;;;;;;0.90;0.35;;;23.00;57.10;;;;;;5115018;28;20046;-65
2022/08/12 05:27:18;;;;;;;0.95;0.40;;;22.90;57.10;;;;;;5130644;27;20040;-65
2022/08/12 05:29:48;;;;;;;0.93;0.40;;;22.90;57.10;;;;;;5113506;28;20048;-65
2022/08/12 05:32:19;;;;;;;;;;;22.90;57.10;;;;;;5113757;28;20600;-65
2022/08/12 05:34:46;;;;;;;1.00;0.50;;;22.90;57.10;;;;;;5113756;28;19963;-65
2022/08/12 05:37:13;;;;;;;1.10;0.55;;;22.90;57.10;;;;;;5114667;28;20097;-66
2022/08/12 05:39:39;;;;;;;0.77;0.40;;;22.90;57.20;;;;;;5113578;28;20044;-65
2022/08/12 05:42:08;;;;;;;0.77;0.50;;;22.90;57.20;;;;;;5114535;28;20433;-65
2022/08/12 05:44:34;;;;;;;1.40;0.68;;;22.90;57.20;;;;;;5113139;28;20046;-66
2022/08/12 05:47:00;;;;;;;1.45;0.55;;;22.90;57.20;;;;;;5130523;27;20028;-65
2022/08/12 05:49:27;;;;;;;0.82;0.60;;;22.90;57.20;;;;;;5114029;28;20060;-66
2022/08/12 05:51:52;;;;;;;0.68;0.40;;;22.90;57.20;;;;;;5114399;28;20448;-65
2022/08/12 05:54:19;;;;;;;1.05;0.40;;;22.90;57.20;;;;;;5114354;28;20024;-65
2022/08/12 05:56:44;;;;;;;0.73;0.40;;;22.90;57.30;;;;;;5113245;28;20115;-65
2022/08/12 05:59:11;;;;;;;0.80;0.47;;;22.90;57.30;;;;;;5095908;28;20527;-65
2022/08/12 06:01:37;;;;;;;1.13;0.55;;;22.90;57.30;;;;;;5113018;28;20051;-65
2022/08/12 06:04:03;;;;;;;1.17;0.47;;;22.90;57.30;;;;;;5113111;28;20233;-65
2022/08/12 06:06:37;;;;;;;0.60;0.40;;;22.90;57.30;;;;;;5114122;28;20490;-65
2022/08/12 06:09:03;;;;;;;0.40;0.30;;;22.90;57.30;;;;;;5112695;28;20075;-65
2022/08/12 06:11:29;;;;;;;1.00;0.50;;;22.90;57.30;;;;;;5112119;28;20043;-64
2022/08/12 06:13:57;;;;;;;1.00;0.40;;;22.90;57.30;;;;;;5113493;28;20035;-66
2022/08/12 06:16:24;;;;;;;1.67;0.40;;;22.90;57.30;;;;;;5112575;28;20043;-66
2022/08/12 06:18:50;;;;;;;0.73;0.47;;;22.90;57.30;;;;;;5113853;28;20499;-66
2022/08/12 06:21:20;;;;;;;1.73;0.32;;;22.90;58.00;;;;;;5113819;28;20078;-65
2022/08/12 06:23:46;;;;;;;1.85;0.50;;;22.90;57.30;;;;;;5113793;28;20395;-66
2022/08/12 06:26:14;;;;;;;0.70;0.45;;;22.90;57.30;;;;;;5129625;27;20040;-65
2022/08/12 06:28:41;;;;;;;0.80;0.43;;;22.90;57.30;;;;;;5113606;28;20480;-65
2022/08/12 06:31:08;;;;;;;0.80;0.40;;;22.90;57.30;;;;;;5112185;28;20114;-65
2022/08/12 06:33:34;;;;;;;1.02;0.65;;;22.90;57.30;;;;;;5113553;28;20087;-65
2022/08/12 06:36:00;;;;;;;0.77;0.47;;;22.90;57.30;;;;;;5112475;28;20032;-66
2022/08/12 06:38:29;;;;;;;0.93;0.50;;;22.90;57.30;;;;;;5113599;28;20043;-65
2022/08/12 06:43:44;;;;;;;0.60;0.40;;;22.90;57.30;;;;;;5113120;28;20055;-65
2022/08/12 06:46:12;;;;;;;0.50;0.40;;;22.90;57.30;;;;;;5111956;28;20119;-65
2022/08/12 06:48:41;;;;;;;1.35;0.50;;;22.90;57.30;;;;;;5111632;28;20043;-65
2022/08/12 06:51:09;;;;;;;1.25;0.60;;;22.90;57.30;;;;;;5113137;28;20650;-65
2022/08/12 06:53:35;;;;;;;1.13;0.50;;;22.90;57.30;;;;;;5112167;28;20059;-65
2022/08/12 06:56:01;;;;;;;0.70;0.50;;;22.90;57.30;;;;;;5113159;28;20399;-65
2022/08/12 06:58:28;;;;;;;2.10;0.50;;;22.90;57.20;;;;;;5111738;28;20122;-65
2022/08/12 07:00:56;;;;;;;0.70;0.60;;;22.90;57.20;;;;;;5113259;28;20043;-65
2022/08/12 07:03:27;;;;;;;0.80;0.47;;;22.90;57.20;;;;;;5113159;28;20040;-65
2022/08/12 07:05:55;;;;;;;0.68;0.50;;;22.90;57.30;;;;;;5111896;28;20051;-65
2022/08/12 07:08:24;;;;;;;0.95;0.50;;;23.00;57.30;;;;;;5112840;28;20126;-65
2022/08/12 07:11:05;;;;;;;0.70;0.60;;;22.90;57.30;;;;;;5112772;28;20413;-65
2022/08/12 07:13:37;;;;;;;1.10;0.60;;;22.90;57.20;;;;;;5111620;28;20043;-65
2022/08/12 07:16:05;;;;;;;1.50;0.63;;;22.90;57.20;;;;;;5111753;28;20084;-65
2022/08/12 07:18:32;;;;;;;0.60;0.32;;;22.90;57.20;;;;;;5111758;28;20047;-65
2022/08/12 07:21:02;;;;;;;0.95;0.55;;;23.00;57.30;;;;;;5111379;28;20050;-65
2022/08/12 07:23:29;;;;;;;0.60;0.30;;;23.00;57.30;;;;;;5111348;28;20488;-65
2022/08/12 07:25:56;;;;;;;0.60;0.45;;;23.00;57.30;;;;;;5111600;28;20088;-65
2022/08/12 07:28:23;;;;;;;0.60;0.40;;;23.00;57.20;;;;;;5112702;28;20043;-65
2022/08/12 07:30:51;;;;;;;1.55;0.50;;;23.00;57.30;;;;;;5112499;28;20047;-65
2022/08/12 07:33:22;;;;;;;0.77;0.35;;;23.00;57.20;;;;;;5111579;28;20043;-65
2022/08/12 07:35:49;;;;;;;0.90;0.45;;;23.00;57.20;;;;;;5112513;28;20047;-65
2022/08/12 07:41:16;;;;;;;0.60;0.43;;;23.00;57.20;;;;;;5130324;27;20788;-65
2022/08/12 07:43:45;;;;;;;0.68;0.50;;;23.00;57.20;;;;;;5129006;28;20483;-65
2022/08/12 07:46:14;;;;;;;0.67;0.30;;;23.00;57.20;;;;;;5129320;28;20039;-65
2022/08/12 07:48:43;;;;;;;1.10;0.50;;;23.00;57.10;;;;;;5130164;27;20265;-65
2022/08/12 07:51:10;;;;;;;1.05;0.52;;;23.00;57.10;;;;;;5128963;28;20049;-65
2022/08/12 07:53:38;;;;;;;0.75;0.40;;;23.00;57.10;;;;;;5128710;28;20045;-65
2022/08/12 07:56:07;;;;;;;0.68;0.30;;;23.00;57.10;;;;;;5130211;27;20043;-65
2022/08/12 07:58:32;;;;;;;0.73;0.45;;;23.00;57.10;;;;;;5128641;28;20127;-65
2022/08/12 08:01:01;;;;;;;0.80;0.50;;;23.00;57.10;;;;;;5128899;28;20047;-64
2022/08/12 08:03:28;;;;;;;0.82;0.52;;;23.00;57.10;;;;;;5128829;28;20184;-64
2022/08/12 08:05:55;;;;;;;0.90;0.30;;;23.00;57.10;;;;;;5128845;28;20046;-65
2022/08/12 08:08:23;;;;;;;0.68;0.52;;;23.00;57.10;;;;;;5128804;28;20543;-65
2022/08/12 08:12:52;;;;;;;1.00;0.40;;;23.00;57.00;;;;;;5128510;28;20680;-65
2022/08/12 08:13:39;;;;;;;0.75;0.50;;;23.00;57.00;;;;;;5129550;28;20047;-65
2022/08/12 08:16:06;;;;;;;0.98;0.63;;;23.00;57.00;;;;;;5129649;27;20046;-65
2022/08/12 08:18:32;;;;;;;0.75;0.40;;;23.00;57.00;;;;;;5128307;27;20043;-65
2022/08/12 08:20:57;;;;;;;0.93;0.60;;;23.00;57.00;;;;;;5128583;27;20089;-65
2022/08/12 08:26:12;;;;;;;1.02;0.50;;;23.00;56.90;;;;;;5128038;28;20048;-65
2022/08/12 08:28:37;;;;;;;0.52;0.40;;;23.10;56.90;;;;;;5128047;28;20529;-64
2022/08/12 08:31:03;;;;;;;1.08;0.40;;;23.10;56.90;;;;;;5128066;28;20040;-65
2022/08/12 08:33:31;;;;;;;0.70;0.47;;;23.10;56.90;;;;;;5128050;28;20031;-65
2022/08/12 08:35:58;;;;;;;0.73;0.50;;;23.10;56.80;;;;;;5129328;27;20387;-64
2022/08/12 08:38:23;;;;;;;1.38;0.70;;;23.10;56.80;;;;;;5129293;27;20432;-65
2022/08/12 08:43:35;;;;;;;0.60;0.35;;;23.10;56.80;;;;;;5127848;28;20112;-64
2022/08/12 08:46:04;;;;;;;0.40;0.30;;;23.10;56.70;;;;;;5127863;28;20520;-64
2022/08/12 08:48:33;;;;;;;0.93;0.40;;;23.10;56.60;;;;;;5127721;28;20038;-65
2022/08/12 08:51:00;;;;;;;1.73;0.50;;;23.10;56.60;;;;;;5122028;27;20505;-65
2022/08/12 08:53:26;;;;;;;0.88;0.50;;;23.10;56.50;;;;;;5115252;28;20071;-65
2022/08/12 08:55:53;;;;;;;1.20;0.70;;;23.10;56.50;;;;;;5113928;28;20109;-65
2022/08/12 08:58:20;;;;;;;0.90;0.40;;;23.10;56.50;;;;;;5114181;28;20055;-65
2022/08/12 09:00:49;;;;;;;0.98;0.60;;;23.10;56.50;;;;;;5113729;28;20491;-65
2022/08/12 09:03:16;;;;;;;0.80;0.68;;;23.10;56.50;;;;;;5113855;28;20039;-65
2022/08/12 09:05:42;;;;;;;0.85;0.52;;;23.10;56.50;;;;;;5113556;28;20044;-65
2022/08/12 09:08:08;;;;;;;0.75;0.65;;;23.20;56.60;;;;;;5114965;28;20043;-64
2022/08/12 09:10:34;;;;;;;0.65;0.40;;;23.20;56.60;;;;;;5113532;28;20051;-65
2022/08/12 09:13:33;;;;;;;0.80;0.40;;;23.20;56.50;;;;;;5113496;28;20066;-65
2022/08/12 09:15:46;;;;;;;1.35;0.60;;;23.20;56.50;;;;;;5108482;28;20040;-65
2022/08/12 09:18:14;;;;;;;1.30;0.77;;;23.20;56.50;;;;;;5114325;28;20057;-65
2022/08/12 09:20:40;;;;;;;11.52;1.95;;;23.30;56.40;;;;;;5112924;28;20126;-65
2022/08/12 09:23:09;;;;;;;8.90;1.50;;;23.40;56.60;;;;;;5114348;28;20039;-63
2022/08/12 09:25:38;;;;;;;10.52;1.80;;;23.40;56.90;;;;;;5113006;28;20101;-64
2022/08/12 09:28:06;;;;;;;25.50;3.40;;;23.50;56.90;;;;;;5093173;28;20039;-65
2022/08/12 09:30:32;;;;;;;13.30;2.88;;;23.70;57.10;;;;;;5109945;28;20050;-65
2022/08/12 09:32:58;;;;;;;19.33;3.28;;;23.70;57.10;;;;;;5112239;28;20118;-64
2022/08/12 09:35:27;;;;;;;12.63;2.58;;;23.80;57.00;;;;;;5112720;28;20127;-64
2022/08/12 09:37:54;;;;;;;15.90;2.80;;;23.90;57.00;;;;;;5114182;28;20054;-64
2022/08/12 09:40:22;;;;;;;15.27;3.33;;;24.00;57.00;;;;;;5112499;28;20059;-64
2022/08/12 09:45:35;;;;;;;12.38;2.92;;;24.10;56.80;;;;;;5107244;28;20455;-64
2022/08/12 09:48:05;;;;;;;19.55;3.28;;;24.20;56.60;;;;;;5112569;28;20040;-65
2022/08/12 09:50:31;;;;;;;12.43;3.50;;;24.30;56.40;;;;;;5111565;28;20040;-65
2022/08/12 09:55:46;;;;;;;15.82;3.10;;;24.30;56.30;;;;;;5130297;27;20096;-66
2022/08/12 09:58:15;;;;;;;14.13;3.42;;;24.20;56.20;;;;;;5128955;28;20126;-65
2022/08/12 10:00:45;;;;;;;14.48;3.67;;;24.20;56.10;;;;;;5128730;28;20202;-65
2022/08/12 10:03:13;;;;;;;9.57;3.25;;;24.20;56.10;;;;;;5129235;28;20078;-65
2022/08/12 10:05:42;;;;;;;13.48;3.00;;;24.20;56.10;;;;;;5146461;27;20043;-65
2022/08/12 10:08:10;;;;;;;8.60;3.25;;;24.20;56.10;;;;;;5128976;28;20544;-65
2022/08/12 10:13:40;;;;;;;12.40;3.10;;;24.10;56.00;;;;;;5129148;28;20437;-65
2022/08/12 10:13:41;;;;;;;11.80;3.42;;;24.10;56.00;;;;;;5129922;28;20088;-65
2022/08/12 10:16:27;;;;;;;10.90;2.67;;;24.10;56.00;;;;;;5128622;28;20048;-65
2022/08/12 10:19:00;;;;;;;10.80;2.70;;;24.10;55.80;;;;;;5128944;28;20042;-66
2022/08/12 10:21:35;;;;;;;10.30;2.80;;;24.10;55.90;;;;;;5128574;28;20043;-65
2022/08/12 10:24:03;;;;;;;18.63;3.65;;;24.10;55.80;;;;;;5129820;27;20043;-65
2022/08/12 10:29:49;;;;;;;11.02;3.00;;;24.10;55.80;;;;;;5128572;28;20405;-65
2022/08/12 10:32:05;;;;;;;10.70;2.30;;;24.10;55.80;;;;;;5129464;28;20051;-65
2022/08/12 10:34:31;;;;;;;9.38;2.88;;;24.10;55.80;;;;;;5128317;28;20047;-65
2022/08/12 10:36:59;;;;;;;6.93;2.45;;;24.10;55.80;;;;;;5128538;27;20078;-65
2022/08/12 10:39:31;;;;;;;6.75;2.38;;;24.10;55.80;;;;;;5128591;28;20391;-65
2022/08/12 10:44:45;;;;;;;4.57;2.05;;;24.10;55.80;;;;;;5128170;28;20051;-65
2022/08/12 10:47:11;;;;;;;9.35;2.78;;;24.00;55.80;;;;;;5129277;27;20051;-65
2022/08/12 10:49:37;;;;;;;7.57;1.95;;;24.00;55.70;;;;;;5128385;28;20504;-65
2022/08/12 10:52:05;;;;;;;11.10;2.35;;;24.00;55.70;;;;;;5129342;28;20063;-65
2022/08/12 10:54:31;;;;;;;12.32;3.22;;;24.00;55.70;;;;;;5127483;27;20055;-65
2022/08/12 10:56:59;;;;;;;6.80;2.30;;;24.00;55.70;;;;;;5127870;28;20058;-65
2022/08/12 10:59:27;;;;;;;6.88;2.47;;;24.00;55.70;;;;;;5128088;28;20051;-65
2022/08/12 11:01:55;;;;;;;6.88;1.60;;;24.00;55.60;;;;;;5129063;27;20071;-65
2022/08/12 11:04:21;;;;;;;7.53;2.97;;;24.00;55.60;;;;;;5127706;27;20077;-65
2022/08/12 11:06:47;;;;;;;8.38;1.98;;;24.00;55.70;;;;;;5115781;28;20040;-65
2022/08/12 11:09:17;;;;;;;8.07;2.05;;;24.00;55.60;;;;;;5114244;28;20092;-65
2022/08/12 11:11:47;;;;;;;12.85;2.92;;;24.00;55.60;;;;;;5115310;28;20040;-65
2022/08/12 11:14:16;;;;;;;;;;;24.00;55.60;;;;;;5115532;28;20391;-65
2022/08/12 11:16:43;;;;;;;7.57;2.15;;;24.00;55.60;;;;;;5131011;27;19915;-65
2022/08/12 11:19:09;;;;;;;7.90;2.92;;;23.90;55.60;;;;;;5113968;28;20036;-65
2022/08/12 11:21:36;;;;;;;5.65;2.20;;;23.90;55.60;;;;;;5114110;28;20049;-65
2022/08/12 11:24:02;;;;;;;4.93;1.83;;;24.00;55.60;;;;;;5114975;28;20131;-65
2022/08/12 11:26:28;;;;;;;6.97;2.38;;;24.00;55.50;;;;;;5114978;28;20058;-65
2022/08/12 11:28:53;;;;;;;8.68;2.22;;;23.90;55.40;;;;;;5113622;28;20036;-65
2022/08/12 11:31:19;;;;;;;9.05;2.00;;;24.00;55.50;;;;;;5113541;28;20052;-65
2022/08/12 11:33:44;;;;;;;7.43;2.28;;;24.00;55.50;;;;;;5114915;28;20048;-65
2022/08/12 11:36:10;;;;;;;5.55;1.85;;;23.90;55.40;;;;;;5113713;28;20032;-65
2022/08/12 11:38:36;;;;;;;5.38;1.88;;;24.00;55.50;;;;;;5113473;28;20039;-65
2022/08/12 11:41:03;;;;;;;6.90;2.00;;;23.90;55.40;;;;;;5113614;28;20050;-65
2022/08/12 11:43:30;;;;;;;6.50;2.20;;;23.90;55.40;;;;;;5114645;28;20073;-65
2022/08/12 11:45:55;;;;;;;4.25;1.40;;;23.90;55.40;;;;;;5130601;27;20043;-65
2022/08/12 11:48:21;;;;;;;4.65;1.88;;;23.90;55.40;;;;;;5113566;28;20487;-65
2022/08/12 11:50:47;;;;;;;5.50;2.20;;;23.90;55.40;;;;;;5113197;28;20032;-65
2022/08/12 11:53:13;;;;;;;5.40;1.67;;;24.00;55.40;;;;;;5113202;28;20051;-65
2022/08/12 11:55:38;;;;;;;5.10;1.80;;;24.00;55.40;;;;;;5112699;28;20051;-65
2022/08/12 11:58:04;;;;;;;6.15;2.22;;;23.90;55.40;;;;;;5096047;28;20044;-65
2022/08/12 12:00:29;;;;;;;4.05;1.45;;;23.90;55.30;;;;;;5114254;28;20035;-65
2022/08/12 12:02:55;;;;;;;4.28;1.58;;;23.90;55.30;;;;;;5129982;27;20035;-65
2022/08/12 12:05:21;;;;;;;5.40;1.70;;;24.00;55.40;;;;;;5114198;28;20039;-65
2022/08/12 12:07:46;;;;;;;5.25;1.70;;;23.90;55.30;;;;;;5112788;28;20040;-65
2022/08/12 12:10:17;;;;;;;4.35;1.60;;;24.00;55.30;;;;;;5112792;28;20035;-65
2022/08/12 12:12:43;;;;;;;3.67;1.63;;;24.00;55.30;;;;;;5112821;28;20047;-65
2022/08/12 12:15:09;;;;;;;6.03;1.70;;;24.00;55.30;;;;;;5113832;28;20043;-65
2022/08/12 12:17:37;;;;;;;5.22;1.80;;;24.00;55.20;;;;;;5112935;28;20467;-65
2022/08/12 12:20:07;;;;;;;4.90;1.83;;;24.00;55.20;;;;;;5112871;28;20039;-65
2022/08/12 12:22:33;;;;;;;3.63;1.50;;;24.00;55.20;;;;;;5129743;27;20050;-65
2022/08/12 12:24:58;;;;;;;3.40;1.55;;;24.00;55.20;;;;;;5112738;28;20043;-65
2022/08/12 12:27:24;;;;;;;5.53;1.50;;;24.00;55.10;;;;;;5112485;28;20050;-65
2022/08/12 12:29:50;;;;;;;3.22;1.52;;;24.00;55.10;;;;;;5113776;28;20040;-65
2022/08/12 12:32:16;;;;;;;6.40;1.73;;;24.00;55.10;;;;;;5112229;28;20131;-65
2022/08/12 12:34:41;;;;;;;3.75;1.40;;;24.00;55.10;;;;;;5113641;28;20044;-65
2022/08/12 12:37:11;;;;;;;5.78;2.13;;;24.00;55.10;;;;;;5112514;28;20035;-65
2022/08/12 12:39:37;;;;;;;;;;;24.00;55.10;;;;;;5114187;28;20035;-65
2022/08/12 12:42:03;;;;;;;6.63;1.52;;;24.00;54.90;;;;;;5113504;27;20372;-65
2022/08/12 12:44:29;;;;;;;4.40;1.25;;;24.00;55.00;;;;;;5113508;28;20049;-65
2022/08/12 12:46:54;;;;;;;3.65;1.77;;;24.00;54.90;;;;;;5112132;28;20482;-65
2022/08/12 12:49:20;;;;;;;7.07;1.83;;;24.10;54.90;;;;;;5112176;28;20051;-65
2022/08/12 12:51:46;;;;;;;4.40;1.63;;;24.00;54.80;;;;;;5112063;28;20047;-65
2022/08/12 12:54:11;;;;;;;4.85;2.35;;;24.00;54.80;;;;;;5113033;28;20062;-65
2022/08/12 12:56:40;;;;;;;4.10;1.48;;;24.10;54.90;;;;;;5112093;28;20048;-65
2022/08/12 12:59:07;;;;;;;2.92;1.10;;;24.10;54.90;;;;;;5112225;28;20051;-65
2022/08/12 13:01:37;;;;;;;3.15;0.95;;;24.10;54.80;;;;;;5113002;28;20380;-65
2022/08/12 13:04:07;;;;;;;3.13;1.33;;;24.10;54.80;;;;;;5111826;28;20471;-65
2022/08/12 13:06:32;;;;;;;3.63;1.92;;;24.10;55.50;;;;;;5111786;28;20031;-65
2022/08/12 13:09:00;;;;;;;2.40;1.48;;;24.10;54.80;;;;;;5111911;28;20039;-65
2022/08/12 13:11:27;;;;;;;3.83;2.05;;;24.10;54.70;;;;;;5111752;28;20117;-66
2022/08/12 13:13:54;;;;;;;3.50;1.83;;;24.10;54.70;;;;;;5111723;28;20044;-65
2022/08/12 13:16:20;;;;;;;4.78;1.75;;;24.10;54.70;;;;;;5112848;28;20353;-65
2022/08/12 13:18:51;;;;;;;2.72;1.42;;;24.10;54.60;;;;;;5111747;28;20521;-65
2022/08/12 13:21:17;;;;;;;2.88;1.23;;;24.10;54.60;;;;;;5111786;28;20089;-65
2022/08/12 13:23:45;;;;;;;4.10;1.50;;;24.10;54.60;;;;;;5111386;28;20047;-65
2022/08/12 13:26:14;;;;;;;4.80;1.58;;;24.10;54.50;;;;;;5112798;28;20118;-65
2022/08/12 13:28:44;;;;;;;3.83;1.05;;;24.10;54.50;;;;;;5111107;28;20114;-65
2022/08/12 13:31:11;;;;;;;2.88;1.58;;;24.10;54.50;;;;;;5112591;28;20067;-65
2022/08/12 13:33:37;;;;;;;3.90;1.83;;;24.10;54.50;;;;;;5111221;28;20498;-65
2022/08/12 13:36:03;;;;;;;3.63;1.35;;;24.20;54.60;;;;;;5111565;28;20054;-65
2022/08/12 13:38:48;;;;;;;2.08;1.20;;;24.10;54.40;;;;;;5111476;28;20084;-65
2022/08/12 13:41:31;;;;;;;3.40;1.67;;;24.20;54.40;;;;;;5128658;27;20036;-65
2022/08/12 13:44:04;;;;;;;2.95;1.08;;;24.20;54.40;;;;;;5111075;28;20066;-65
2022/08/12 13:46:30;;;;;;;1.92;0.77;;;24.20;54.40;;;;;;5111489;28;20044;-65
2022/08/12 13:48:55;;;;;;;2.47;1.27;;;24.20;54.30;;;;;;5111068;28;20538;-65
2022/08/12 13:51:22;;;;;;;3.63;1.42;;;24.20;54.30;;;;;;5111173;28;20039;-65
2022/08/12 13:53:49;;;;;;;2.20;1.40;;;24.20;54.20;;;;;;5111981;28;20043;-65
2022/08/12 13:56:15;;;;;;;4.40;1.40;;;24.20;54.20;;;;;;5112300;28;20085;-65
2022/08/12 13:58:47;;;;;;;4.55;1.75;;;24.20;54.20;;;;;;5112235;28;20572;-65
2022/08/12 14:01:14;;;;;;;2.05;1.48;;;24.20;54.10;;;;;;5111088;28;20118;-65
2022/08/12 14:03:41;;;;;;;3.17;1.27;;;24.20;54.10;;;;;;5111238;28;20055;-66
2022/08/12 14:06:07;;;;;;;2.25;1.13;;;24.20;54.10;;;;;;5112305;28;20040;-65
2022/08/12 14:08:33;;;;;;;2.58;1.20;;;24.30;54.10;;;;;;5112284;28;20047;-65
2022/08/12 14:10:59;;;;;;;4.30;1.52;;;24.30;54.10;;;;;;5110820;28;20080;-68
2022/08/12 14:13:27;;;;;;;2.38;1.30;;;24.30;54.00;;;;;;5111190;28;20039;-65
2022/08/12 14:15:56;;;;;;;3.63;1.27;;;24.30;54.00;;;;;;5110878;28;20483;-65
2022/08/12 14:18:24;;;;;;;2.60;1.40;;;24.30;54.00;;;;;;5110934;28;20081;-65
2022/08/12 14:21:00;;;;;;;3.20;1.30;;;24.30;54.00;;;;;;5111036;28;20047;-65
2022/08/12 14:23:31;;;;;;;2.88;1.50;;;24.30;53.90;;;;;;5112071;28;20513;-65
2022/08/12 14:25:59;;;;;;;2.40;1.58;;;24.30;53.90;;;;;;5110755;28;20046;-65
2022/08/12 14:28:27;;;;;;;2.47;1.30;;;24.30;53.90;;;;;;5111114;28;20036;-65
2022/08/12 14:30:59;;;;;;;4.05;1.77;;;24.30;53.80;;;;;;5110986;28;20070;-65
2022/08/12 14:33:32;;;;;;;4.47;1.40;;;24.30;53.80;;;;;;5112028;28;20043;-65
2022/08/12 14:35:58;;;;;;;2.88;1.27;;;24.30;53.80;;;;;;5111955;28;20036;-65
2022/08/12 14:38:27;;;;;;;3.42;1.67;;;24.30;53.80;;;;;;5110701;28;20599;-65
2022/08/12 14:40:55;;;;;;;3.75;1.10;;;24.40;53.80;;;;;;5111828;28;20153;-65
2022/08/12 14:43:22;;;;;;;1.50;1.33;;;24.30;53.70;;;;;;5114546;28;20044;-65
2022/08/12 14:45:48;;;;;;;1.40;1.00;;;24.30;53.70;;;;;;5114751;28;20422;-65
2022/08/12 14:48:17;;;;;;;2.60;1.13;;;24.30;53.70;;;;;;5114729;28;20054;-65
2022/08/12 14:50:44;;;;;;;1.60;1.10;;;24.40;53.70;;;;;;5114364;28;20043;-65
2022/08/12 14:53:11;;;;;;;2.47;1.42;;;24.40;53.70;;;;;;5114618;28;20552;-65
2022/08/12 14:55:40;;;;;;;2.38;1.13;;;24.40;53.70;;;;;;5113980;28;20474;-65